Time;durP1;ratioP1;P1;durP2;ratioP2;P2;SDS_P1;SDS_P2;PMS_P1;PMS_P2;Temp;Humidity;BMP_temperature;BMP_pressure;BME280_temperature;BME280_humidity;BME280_pressure;Samples;Min_cycle;Max_cycle;Signal;HPM_P1;HPM_P2
2024/02/14 00:01:09;;;;;;;0.32;0.32;;;8.00;99.90;;;;;;5084884;28;20035;-82
2024/02/14 00:03:36;;;;;;;0.10;0.10;;;8.00;99.90;;;;;;5077891;28;20124;-82
2024/02/14 00:06:04;;;;;;;0.10;0.10;;;8.10;99.90;;;;;;5077829;28;20513;-82
2024/02/14 00:08:30;;;;;;;0.10;0.10;;;8.10;99.90;;;;;;5079508;28;20074;-82
2024/02/14 00:10:55;;;;;;;0.10;0.10;;;8.00;99.90;;;;;;5080995;28;20028;-82
2024/02/14 00:13:21;;;;;;;0.10;0.10;;;8.00;99.90;;;;;;5082687;28;20032;-82
2024/02/14 00:15:47;;;;;;;0.10;0.10;;;7.80;99.90;;;;;;5082202;28;20050;-82
2024/02/14 00:18:13;;;;;;;0.10;0.10;;;7.80;99.90;;;;;;5078265;28;20086;-82
2024/02/14 00:20:39;;;;;;;0.10;0.10;;;7.90;99.90;;;;;;5080507;28;20055;-83
2024/02/14 00:23:05;;;;;;;0.10;0.10;;;8.00;99.90;;;;;;5077813;28;20579;-82
2024/02/14 00:25:30;;;;;;;0.00;0.00;;;8.00;99.90;;;;;;5075855;28;20415;-82
2024/02/14 00:27:56;;;;;;;0.15;0.15;;;8.00;99.90;;;;;;5082875;28;20024;-81
2024/02/14 00:30:23;;;;;;;0.10;0.10;;;8.00;99.90;;;;;;5077966;28;20032;-81
2024/02/14 00:32:48;;;;;;;0.10;0.10;;;8.10;99.90;;;;;;5087186;28;20031;-81
2024/02/14 00:35:14;;;;;;;0.10;0.10;;;8.10;99.90;;;;;;5082235;28;20900;-81
2024/02/14 00:37:40;;;;;;;0.10;0.10;;;8.00;99.90;;;;;;5081792;28;20053;-82
2024/02/14 00:40:06;;;;;;;0.10;0.10;;;8.10;99.90;;;;;;5083569;28;20024;-81
2024/02/14 00:42:32;;;;;;;0.10;0.10;;;8.10;99.90;;;;;;5082016;28;20055;-81
2024/02/14 00:44:57;;;;;;;0.10;0.10;;;8.10;99.90;;;;;;5084793;28;20035;-83
2024/02/14 00:47:23;;;;;;;0.10;0.10;;;8.10;99.90;;;;;;5089174;28;20035;-82
2024/02/14 00:49:49;;;;;;;0.07;0.07;;;8.10;99.90;;;;;;5085448;28;20041;-82
2024/02/14 00:52:16;;;;;;;0.10;0.10;;;8.00;99.90;;;;;;5088936;28;20024;-82
2024/02/14 00:54:42;;;;;;;0.10;0.10;;;8.00;99.90;;;;;;5085465;28;20040;-81
2024/02/14 00:57:08;;;;;;;0.10;0.10;;;8.10;99.90;;;;;;5084513;28;20629;-82
2024/02/14 00:59:33;;;;;;;0.10;0.10;;;8.10;99.90;;;;;;5079488;28;20035;-82
2024/02/14 01:01:59;;;;;;;0.03;0.03;;;8.10;99.90;;;;;;5083970;28;20020;-81
2024/02/14 01:04:25;;;;;;;0.10;0.10;;;8.00;99.90;;;;;;5081519;28;20058;-81
2024/02/14 01:06:51;;;;;;;0.70;0.70;;;8.00;99.90;;;;;;5084339;28;20368;-81
2024/02/14 01:09:18;;;;;;;0.10;0.10;;;8.00;99.90;;;;;;5079576;28;20109;-81
2024/02/14 01:11:44;;;;;;;0.10;0.10;;;7.90;99.90;;;;;;5083378;28;20040;-81
2024/02/14 01:14:10;;;;;;;0.05;0.05;;;7.80;99.90;;;;;;5080203;28;20027;-81
2024/02/14 01:16:45;;;;;;;0.10;0.10;;;7.70;99.90;;;;;;5081078;28;20070;-81
2024/02/14 01:19:11;;;;;;;0.10;0.10;;;7.60;99.90;;;;;;5077707;28;20028;-82
2024/02/14 01:21:37;;;;;;;0.10;0.10;;;7.50;99.90;;;;;;5084469;28;20027;-82
2024/02/14 01:24:04;;;;;;;0.10;0.10;;;7.40;99.90;;;;;;5085007;28;20036;-82
2024/02/14 01:26:30;;;;;;;0.30;0.30;;;7.50;99.90;;;;;;5084517;28;20027;-82
2024/02/14 01:28:56;;;;;;;0.10;0.10;;;7.60;99.90;;;;;;5081381;28;20031;-81
2024/02/14 01:31:22;;;;;;;0.30;0.30;;;7.50;99.90;;;;;;5080294;28;20028;-82
2024/02/14 01:33:48;;;;;;;0.10;0.10;;;7.50;99.90;;;;;;5085029;28;20032;-81
2024/02/14 01:36:13;;;;;;;0.10;0.10;;;7.50;99.90;;;;;;5093009;28;20028;-82
2024/02/14 01:38:39;;;;;;;0.10;0.10;;;7.50;99.90;;;;;;5086919;28;20058;-82
2024/02/14 01:41:05;;;;;;;0.10;0.10;;;7.50;99.90;;;;;;5083021;28;20038;-82
2024/02/14 01:43:31;;;;;;;0.20;0.20;;;7.40;99.90;;;;;;5078846;28;20030;-82
2024/02/14 01:46:07;;;;;;;0.10;0.10;;;7.40;99.90;;;;;;5084609;28;20590;-81
2024/02/14 01:48:34;;;;;;;3.63;1.60;;;7.40;99.90;;;;;;5087359;28;20039;-81
2024/02/14 01:51:02;;;;;;;0.10;0.10;;;7.30;99.90;;;;;;5075120;28;20320;-81
2024/02/14 01:53:30;;;;;;;0.10;0.10;;;7.30;99.90;;;;;;5083444;28;20032;-81
2024/02/14 01:55:58;;;;;;;0.10;0.10;;;7.20;99.90;;;;;;5077334;28;20040;-83
2024/02/14 01:58:24;;;;;;;0.22;0.22;;;7.00;99.90;;;;;;5078316;28;20036;-84
2024/02/14 02:00:55;;;;;;;0.10;0.10;;;7.00;99.90;;;;;;5074476;28;20146;-83
2024/02/14 02:03:22;;;;;;;0.73;0.73;;;6.90;99.90;;;;;;5084296;28;20077;-81
2024/02/14 02:05:48;;;;;;;0.10;0.10;;;6.90;99.90;;;;;;5074800;28;20024;-81
2024/02/14 02:08:14;;;;;;;0.10;0.10;;;6.80;99.90;;;;;;5078267;28;20609;-81
2024/02/14 02:10:40;;;;;;;0.10;0.10;;;6.80;99.90;;;;;;5083328;28;20032;-81
2024/02/14 02:13:06;;;;;;;0.10;0.10;;;6.80;99.90;;;;;;5078133;28;20033;-81
2024/02/14 02:15:31;;;;;;;0.10;0.10;;;6.80;99.90;;;;;;5083409;28;20586;-81
2024/02/14 02:17:59;;;;;;;0.10;0.10;;;6.70;99.90;;;;;;5079651;28;20035;-81
2024/02/14 02:20:27;;;;;;;0.10;0.10;;;6.70;99.90;;;;;;5084738;28;20024;-81
2024/02/14 02:22:53;;;;;;;0.10;0.10;;;6.70;99.90;;;;;;5082677;28;20024;-81
2024/02/14 02:25:26;;;;;;;0.10;0.10;;;6.60;99.90;;;;;;5082601;28;20415;-82
2024/02/14 02:27:53;;;;;;;0.10;0.10;;;6.70;99.90;;;;;;5081588;28;20112;-81
2024/02/14 02:30:19;;;;;;;0.10;0.10;;;6.80;99.90;;;;;;5081719;28;20790;-81
2024/02/14 02:32:44;;;;;;;0.10;0.10;;;6.70;99.90;;;;;;5086122;28;20028;-81
2024/02/14 02:35:10;;;;;;;0.10;0.10;;;6.70;99.90;;;;;;5080586;28;20140;-81
2024/02/14 02:37:36;;;;;;;0.10;0.10;;;6.70;99.90;;;;;;5087306;28;20082;-81
2024/02/14 02:40:01;;;;;;;0.10;0.10;;;6.70;99.90;;;;;;5082175;28;20036;-81
2024/02/14 02:42:28;;;;;;;0.10;0.10;;;6.70;99.90;;;;;;5086539;28;20059;-81
2024/02/14 02:44:54;;;;;;;;;;;6.70;99.90;;;;;;5084600;28;20028;-81
2024/02/14 02:47:20;;;;;;;0.10;0.10;;;6.70;99.90;;;;;;5081408;28;19985;-80
2024/02/14 02:49:46;;;;;;;1.15;1.15;;;6.70;99.90;;;;;;5083207;28;20086;-81
2024/02/14 02:52:12;;;;;;;0.10;0.10;;;6.70;99.90;;;;;;5078119;28;20059;-82
2024/02/14 02:54:43;;;;;;;0.10;0.10;;;6.60;99.90;;;;;;5075339;28;20694;-81
2024/02/14 02:57:10;;;;;;;0.10;0.10;;;6.50;99.90;;;;;;5082866;28;20053;-81
2024/02/14 02:59:36;;;;;;;0.10;0.10;;;6.60;99.90;;;;;;5080982;28;20033;-81
2024/02/14 03:02:02;;;;;;;0.10;0.10;;;6.60;99.90;;;;;;5082071;28;20043;-81
2024/02/14 03:04:29;;;;;;;0.10;0.10;;;6.70;99.90;;;;;;5080528;28;20050;-81
2024/02/14 03:06:55;;;;;;;0.30;0.30;;;6.70;99.90;;;;;;5079675;28;20094;-81
2024/02/14 03:09:22;;;;;;;0.10;0.10;;;6.70;99.90;;;;;;5081468;28;20056;-80
2024/02/14 03:11:47;;;;;;;;;;;6.70;99.90;;;;;;5079630;28;20022;-81
2024/02/14 03:14:14;;;;;;;0.40;0.40;;;6.60;99.90;;;;;;5078474;28;19911;-81
2024/02/14 03:16:40;;;;;;;0.10;0.10;;;6.50;99.90;;;;;;5076140;28;20038;-81
2024/02/14 03:19:06;;;;;;;0.10;0.10;;;6.40;99.90;;;;;;5073674;28;20663;-82
2024/02/14 03:21:35;;;;;;;0.10;0.10;;;6.40;99.90;;;;;;5074407;28;20155;-82
2024/02/14 03:24:05;;;;;;;0.10;0.10;;;6.30;99.90;;;;;;5076132;28;20495;-82
2024/02/14 03:26:33;;;;;;;0.03;0.03;;;6.20;99.90;;;;;;5080366;28;20047;-82
2024/02/14 03:29:04;;;;;;;0.10;0.10;;;6.20;99.90;;;;;;5069565;28;20029;-82
2024/02/14 03:31:30;;;;;;;0.10;0.10;;;6.20;99.90;;;;;;5087487;28;20052;-80
2024/02/14 03:33:56;;;;;;;0.20;0.20;;;6.20;99.90;;;;;;5075405;28;20055;-81
2024/02/14 03:36:24;;;;;;;0.63;0.63;;;6.20;99.90;;;;;;5079383;28;20051;-81
2024/02/14 03:38:50;;;;;;;0.00;0.00;;;6.10;99.90;;;;;;5078678;28;20024;-81
2024/02/14 03:41:15;;;;;;;0.10;0.10;;;6.10;99.90;;;;;;5078558;28;20035;-81
2024/02/14 03:43:41;;;;;;;0.10;0.10;;;6.20;99.90;;;;;;5078375;28;20031;-82
2024/02/14 03:46:07;;;;;;;0.10;0.10;;;6.30;99.90;;;;;;5076757;28;20617;-81
2024/02/14 03:48:33;;;;;;;0.10;0.10;;;6.30;99.90;;;;;;5081651;28;20820;-82
2024/02/14 03:50:59;;;;;;;0.10;0.10;;;6.30;99.90;;;;;;5079991;28;20037;-82
2024/02/14 03:53:24;;;;;;;0.10;0.10;;;6.40;99.90;;;;;;5076145;28;20047;-81
2024/02/14 03:55:52;;;;;;;0.10;0.10;;;6.30;99.90;;;;;;5082638;28;20125;-82
2024/02/14 03:58:22;;;;;;;0.08;0.08;;;6.30;99.90;;;;;;5084654;28;20039;-81
2024/02/14 04:00:50;;;;;;;0.10;0.10;;;6.30;99.90;;;;;;5078961;28;20047;-81
2024/02/14 04:03:16;;;;;;;0.10;0.10;;;6.30;99.90;;;;;;5080380;28;20032;-81
2024/02/14 04:05:42;;;;;;;0.10;0.10;;;6.20;99.90;;;;;;5074533;28;20021;-81
2024/02/14 04:08:09;;;;;;;0.10;0.10;;;6.10;99.90;;;;;;5079140;28;20105;-81
2024/02/14 04:10:39;;;;;;;0.10;0.10;;;6.00;99.90;;;;;;5085657;28;20051;-81
2024/02/14 04:13:05;;;;;;;0.10;0.10;;;6.00;99.90;;;;;;5074951;28;20040;-82
2024/02/14 04:15:33;;;;;;;0.10;0.10;;;5.90;99.90;;;;;;5076893;28;20036;-82
2024/02/14 04:18:02;;;;;;;1.30;1.20;;;5.90;99.90;;;;;;5076616;28;20034;-82
2024/02/14 04:20:28;;;;;;;0.10;0.10;;;5.90;99.90;;;;;;5082053;28;20036;-82
2024/02/14 04:22:53;;;;;;;0.10;0.10;;;5.90;99.90;;;;;;5088040;28;20111;-81
2024/02/14 04:25:19;;;;;;;0.10;0.10;;;5.90;99.90;;;;;;5080483;28;20032;-81
2024/02/14 04:27:44;;;;;;;0.10;0.10;;;6.00;99.90;;;;;;5088736;28;20032;-82
2024/02/14 04:30:11;;;;;;;0.10;0.10;;;6.00;99.90;;;;;;5085588;28;20089;-82
2024/02/14 04:32:37;;;;;;;0.10;0.10;;;6.00;99.90;;;;;;5084254;28;20035;-82
2024/02/14 04:35:03;;;;;;;0.03;0.03;;;5.90;99.90;;;;;;5084223;28;20450;-82
2024/02/14 04:37:29;;;;;;;0.10;0.10;;;5.90;99.90;;;;;;5082899;28;20212;-82
2024/02/14 04:39:55;;;;;;;1.75;0.60;;;5.90;99.90;;;;;;5088336;28;20074;-81
2024/02/14 04:42:20;;;;;;;0.10;0.10;;;6.00;99.90;;;;;;5080327;28;20724;-82
2024/02/14 04:44:46;;;;;;;0.10;0.10;;;5.90;99.90;;;;;;5094875;28;20035;-82
2024/02/14 04:47:12;;;;;;;4.78;0.98;;;6.00;99.90;;;;;;5088672;28;20036;-82
2024/02/14 04:49:37;;;;;;;0.10;0.10;;;6.00;99.90;;;;;;5086097;28;20024;-81
2024/02/14 04:52:04;;;;;;;0.95;0.95;;;5.90;99.90;;;;;;5072366;28;20032;-82
2024/02/14 04:54:30;;;;;;;0.10;0.10;;;5.90;99.90;;;;;;5073574;28;20110;-82
2024/02/14 04:56:55;;;;;;;0.10;0.10;;;5.90;99.90;;;;;;5080762;28;20074;-80
2024/02/14 04:59:21;;;;;;;0.10;0.10;;;6.00;99.90;;;;;;5082632;28;20016;-81
2024/02/14 05:01:47;;;;;;;0.10;0.10;;;6.20;99.90;;;;;;5084608;28;20028;-81
2024/02/14 05:04:12;;;;;;;0.10;0.10;;;6.30;99.90;;;;;;5079245;28;20020;-81
2024/02/14 05:06:39;;;;;;;0.10;0.10;;;6.30;99.90;;;;;;5085715;28;20402;-81
2024/02/14 05:09:05;;;;;;;0.10;0.10;;;6.30;99.90;;;;;;5081592;28;20140;-82
2024/02/14 05:11:31;;;;;;;0.08;0.08;;;6.40;99.90;;;;;;5082597;28;20082;-82
2024/02/14 05:13:56;;;;;;;0.10;0.10;;;6.40;99.90;;;;;;5084283;28;20040;-81
2024/02/14 05:16:23;;;;;;;0.10;0.10;;;6.30;99.90;;;;;;5091147;28;20391;-81
2024/02/14 05:18:48;;;;;;;0.10;0.10;;;6.30;99.90;;;;;;5086583;28;20040;-82
2024/02/14 05:21:14;;;;;;;0.10;0.10;;;6.20;99.90;;;;;;5080423;28;20093;-81
2024/02/14 05:23:40;;;;;;;0.10;0.10;;;6.10;99.90;;;;;;5082144;28;20898;-81
2024/02/14 05:26:06;;;;;;;0.10;0.10;;;6.20;99.90;;;;;;5081283;28;20099;-81
2024/02/14 05:28:32;;;;;;;0.10;0.10;;;6.10;99.90;;;;;;5084250;28;20090;-81
2024/02/14 05:30:59;;;;;;;0.10;0.10;;;6.00;99.90;;;;;;5079527;28;20035;-81
2024/02/14 05:33:24;;;;;;;0.10;0.10;;;5.90;99.90;;;;;;5088119;28;20056;-82
2024/02/14 05:35:50;;;;;;;0.10;0.10;;;5.90;99.90;;;;;;5079069;28;20067;-81
2024/02/14 05:38:19;;;;;;;4.83;1.90;;;5.80;99.90;;;;;;5088558;28;20039;-81
2024/02/14 05:40:48;;;;;;;0.10;0.10;;;5.80;99.90;;;;;;5087801;28;20028;-81
2024/02/14 05:43:14;;;;;;;0.10;0.10;;;5.70;99.90;;;;;;5080721;28;20521;-80
2024/02/14 05:45:41;;;;;;;0.10;0.10;;;5.70;99.90;;;;;;5083380;28;20407;-79
2024/02/14 05:48:07;;;;;;;0.03;0.03;;;5.60;99.90;;;;;;5080640;28;20443;-79
2024/02/14 05:50:33;;;;;;;0.10;0.10;;;5.60;99.90;;;;;;5071793;28;20037;-80
2024/02/14 05:52:59;;;;;;;0.10;0.10;;;5.60;99.90;;;;;;5074890;28;20025;-80
2024/02/14 05:55:25;;;;;;;0.10;0.10;;;5.70;99.90;;;;;;5081964;28;20097;-81
2024/02/14 05:57:54;;;;;;;0.00;0.00;;;5.70;99.90;;;;;;5079299;28;20040;-80
2024/02/14 06:00:22;;;;;;;0.10;0.10;;;5.70;99.90;;;;;;5084063;28;20103;-80
2024/02/14 06:02:48;;;;;;;0.10;0.10;;;5.70;99.90;;;;;;5078250;28;20043;-81
2024/02/14 06:05:14;;;;;;;0.40;0.40;;;5.80;99.90;;;;;;5081488;28;20024;-81
2024/02/14 06:07:40;;;;;;;0.10;0.10;;;5.80;99.90;;;;;;5083086;28;20579;-79
2024/02/14 06:10:09;;;;;;;0.10;0.10;;;5.80;99.90;;;;;;5082264;28;20032;-79
2024/02/14 06:12:35;;;;;;;0.10;0.10;;;5.70;99.90;;;;;;5078205;28;20846;-81
2024/02/14 06:15:02;;;;;;;0.03;0.03;;;5.70;99.90;;;;;;5088106;28;20028;-80
2024/02/14 06:17:28;;;;;;;0.57;0.57;;;5.70;99.90;;;;;;5080716;28;20024;-80
2024/02/14 06:19:54;;;;;;;0.10;0.10;;;5.70;99.90;;;;;;5086931;28;20589;-81
2024/02/14 06:22:20;;;;;;;0.10;0.10;;;5.60;99.90;;;;;;5080622;28;20016;-79
2024/02/14 06:24:48;;;;;;;0.10;0.10;;;5.60;99.90;;;;;;5083364;28;20067;-79
2024/02/14 06:27:14;;;;;;;0.10;0.10;;;5.60;99.90;;;;;;5079833;28;20270;-80
2024/02/14 06:29:42;;;;;;;0.10;0.10;;;5.60;99.90;;;;;;5085936;28;20035;-80
2024/02/14 06:32:08;;;;;;;0.17;0.17;;;5.60;99.90;;;;;;5079574;28;20547;-81
2024/02/14 06:34:33;;;;;;;0.50;0.50;;;5.50;99.90;;;;;;5086205;28;20139;-80
2024/02/14 06:36:59;;;;;;;0.10;0.10;;;5.60;99.90;;;;;;5082136;28;20036;-81
2024/02/14 06:39:25;;;;;;;0.10;0.10;;;5.60;99.90;;;;;;5082211;28;20132;-80
2024/02/14 06:41:50;;;;;;;0.22;0.22;;;5.60;99.90;;;;;;5082472;28;20040;-80
2024/02/14 06:44:16;;;;;;;0.10;0.10;;;5.60;99.90;;;;;;5083712;28;20023;-80
2024/02/14 06:46:42;;;;;;;0.10;0.10;;;5.60;99.90;;;;;;5081282;28;20081;-80
2024/02/14 06:49:08;;;;;;;0.10;0.10;;;5.60;99.90;;;;;;5084676;28;20032;-80
2024/02/14 06:51:34;;;;;;;0.10;0.10;;;5.70;99.90;;;;;;5084376;28;20039;-80
2024/02/14 06:54:00;;;;;;;0.10;0.10;;;5.70;99.90;;;;;;5083659;28;20027;-82
2024/02/14 06:56:25;;;;;;;0.10;0.10;;;5.70;99.90;;;;;;5078819;28;20070;-81
2024/02/14 06:58:54;;;;;;;0.20;0.20;;;5.80;99.90;;;;;;5070540;28;20419;-80
2024/02/14 07:01:23;;;;;;;0.10;0.10;;;5.80;99.90;;;;;;5069370;28;20028;-79
2024/02/14 07:03:49;;;;;;;0.10;0.10;;;5.90;99.90;;;;;;5077119;28;20027;-79
2024/02/14 07:06:17;;;;;;;0.25;0.25;;;5.90;99.90;;;;;;5078965;28;20081;-80
2024/02/14 07:08:42;;;;;;;0.10;0.10;;;5.90;99.90;;;;;;5077638;28;20729;-81
2024/02/14 07:11:08;;;;;;;0.10;0.10;;;5.90;99.90;;;;;;5076707;28;20154;-80
2024/02/14 07:13:34;;;;;;;0.10;0.10;;;6.00;99.90;;;;;;5073484;28;20035;-80
2024/02/14 07:16:00;;;;;;;0.10;0.10;;;6.30;99.90;;;;;;5074580;28;20036;-79
2024/02/14 07:18:26;;;;;;;0.10;0.10;;;6.70;99.90;;;;;;5077535;28;20089;-79
2024/02/14 07:20:52;;;;;;;0.10;0.10;;;7.00;99.90;;;;;;5074281;28;20017;-81
2024/02/14 07:23:19;;;;;;;1.33;1.30;;;7.70;99.90;;;;;;5082611;28;20024;-81
2024/02/14 07:25:44;;;;;;;;;;;8.00;99.90;;;;;;5079361;28;20588;-78
2024/02/14 07:28:11;;;;;;;0.10;0.10;;;8.20;99.90;;;;;;5082906;28;19943;-78
2024/02/14 07:30:36;;;;;;;0.10;0.10;;;8.50;99.90;;;;;;5067137;28;20052;-78
2024/02/14 07:33:02;;;;;;;0.33;0.33;;;8.60;99.90;;;;;;5067879;28;20152;-78
2024/02/14 07:35:29;;;;;;;0.10;0.10;;;8.10;99.90;;;;;;5066295;28;20017;-78
2024/02/14 07:37:54;;;;;;;0.10;0.10;;;7.80;99.90;;;;;;5077083;28;20031;-78
2024/02/14 07:40:21;;;;;;;0.10;0.10;;;7.70;99.90;;;;;;5065876;28;20622;-78
2024/02/14 07:42:47;;;;;;;;;;;8.60;99.90;;;;;;5066582;28;20080;-78
2024/02/14 07:45:13;;;;;;;1.03;1.03;;;9.30;99.90;;;;;;5072170;28;19940;-78
2024/02/14 07:47:40;;;;;;;0.10;0.10;;;9.90;99.90;;;;;;5072452;28;20024;-78
2024/02/14 07:50:06;;;;;;;0.03;0.03;;;10.10;99.60;;;;;;5079676;28;20788;-78
2024/02/14 07:52:33;;;;;;;0.10;0.10;;;10.10;99.80;;;;;;5075536;28;21173;-79
2024/02/14 07:54:58;;;;;;;0.10;0.10;;;9.70;99.90;;;;;;5074217;28;20040;-79
2024/02/14 07:57:25;;;;;;;0.10;0.10;;;9.20;99.90;;;;;;5072604;28;20806;-78
2024/02/14 07:59:51;;;;;;;0.00;0.00;;;8.50;99.90;;;;;;5072585;28;20020;-78
2024/02/14 08:02:20;;;;;;;0.10;0.10;;;8.20;99.90;;;;;;5076356;28;20498;-78
2024/02/14 08:04:46;;;;;;;0.10;0.10;;;7.90;99.90;;;;;;5073984;28;20023;-78
2024/02/14 08:07:11;;;;;;;0.10;0.10;;;7.80;99.90;;;;;;5079474;28;20036;-79
2024/02/14 08:09:39;;;;;;;0.10;0.10;;;7.70;99.90;;;;;;5075991;28;20511;-79
2024/02/14 08:12:05;;;;;;;0.10;0.10;;;7.80;99.90;;;;;;5067192;28;20597;-79
2024/02/14 08:14:31;;;;;;;0.10;0.10;;;8.50;99.90;;;;;;5068292;28;20028;-78
2024/02/14 08:16:58;;;;;;;0.00;0.00;;;9.90;99.90;;;;;;5066596;28;20048;-78
2024/02/14 08:19:23;;;;;;;0.10;0.10;;;10.90;99.90;;;;;;5081160;28;20065;-79
2024/02/14 08:21:49;;;;;;;0.03;0.03;;;11.70;98.10;;;;;;5069939;28;20028;-78
2024/02/14 08:24:15;;;;;;;0.10;0.10;;;11.80;96.50;;;;;;5073533;28;20027;-79
2024/02/14 08:26:40;;;;;;;0.10;0.10;;;12.70;95.70;;;;;;5074731;28;20021;-79
2024/02/14 08:29:06;;;;;;;0.00;0.00;;;12.20;93.90;;;;;;5085382;28;20073;-78
2024/02/14 08:31:33;;;;;;;0.10;0.10;;;10.80;96.70;;;;;;5081697;28;20024;-78
2024/02/14 08:33:59;;;;;;;0.10;0.10;;;9.80;99.10;;;;;;5077906;28;20546;-78
2024/02/14 08:36:24;;;;;;;0.10;0.10;;;9.50;99.90;;;;;;5082603;28;20063;-78
2024/02/14 08:38:50;;;;;;;0.03;0.03;;;9.20;99.90;;;;;;5083560;28;20113;-79
2024/02/14 08:41:18;;;;;;;0.10;0.10;;;9.20;99.90;;;;;;5078337;28;20090;-79
2024/02/14 08:43:44;;;;;;;0.10;0.10;;;9.20;99.90;;;;;;5082193;28;20033;-78
2024/02/14 08:46:12;;;;;;;0.10;0.10;;;10.70;99.90;;;;;;5075013;28;20050;-79
2024/02/14 08:48:41;;;;;;;0.10;0.10;;;10.90;98.90;;;;;;5073293;28;20413;-78
2024/02/14 08:51:09;;;;;;;0.10;0.10;;;11.30;98.80;;;;;;5080613;28;20775;-79
2024/02/14 08:53:36;;;;;;;0.00;0.00;;;11.60;97.80;;;;;;5081374;28;20032;-78
2024/02/14 08:56:01;;;;;;;0.00;0.00;;;11.50;97.60;;;;;;5079873;28;20051;-79
2024/02/14 08:58:27;;;;;;;0.10;0.10;;;12.10;97.00;;;;;;5074993;28;20036;-78
2024/02/14 09:00:55;;;;;;;0.20;0.20;;;12.10;96.60;;;;;;5083921;28;20028;-78
2024/02/14 09:03:21;;;;;;;0.05;0.05;;;12.70;95.50;;;;;;5083663;28;20032;-79
2024/02/14 09:05:47;;;;;;;0.10;0.10;;;12.80;94.90;;;;;;5087191;28;20024;-79
2024/02/14 09:08:13;;;;;;;0.10;0.10;;;12.80;94.90;;;;;;5083632;28;20043;-79
2024/02/14 09:10:39;;;;;;;0.10;0.10;;;12.70;94.70;;;;;;5081922;28;20118;-79
2024/02/14 09:13:07;;;;;;;0.07;0.07;;;12.50;94.80;;;;;;5082710;28;20032;-78
2024/02/14 09:15:33;;;;;;;0.10;0.10;;;12.70;94.80;;;;;;5088823;28;20400;-79
2024/02/14 09:18:00;;;;;;;0.00;0.00;;;12.70;94.00;;;;;;5085287;28;20028;-78
2024/02/14 09:20:26;;;;;;;0.00;0.00;;;12.50;94.30;;;;;;5083387;28;20039;-79
2024/02/14 09:22:53;;;;;;;0.10;0.10;;;12.90;94.20;;;;;;5080894;28;20038;-79
2024/02/14 09:25:19;;;;;;;0.10;0.10;;;12.90;93.60;;;;;;5082456;28;20020;-79
2024/02/14 09:27:47;;;;;;;0.10;0.10;;;13.10;93.80;;;;;;5073513;28;20040;-79
2024/02/14 09:30:13;;;;;;;0.10;0.10;;;13.10;93.50;;;;;;5077424;28;20111;-79
2024/02/14 09:32:38;;;;;;;0.10;0.10;;;13.30;93.20;;;;;;5089488;28;20110;-79
2024/02/14 09:35:06;;;;;;;0.10;0.10;;;13.20;92.80;;;;;;5079557;28;20032;-79
2024/02/14 09:37:32;;;;;;;0.10;0.10;;;13.40;92.90;;;;;;5081389;28;20215;-79
2024/02/14 09:39:58;;;;;;;0.10;0.10;;;13.60;92.60;;;;;;5082106;28;20032;-79
2024/02/14 09:42:47;;;;;;;0.00;0.00;;;13.70;93.00;;;;;;5091018;28;20016;-80
2024/02/14 09:45:14;;;;;;;0.00;0.00;;;13.80;91.90;;;;;;5090499;28;20030;-79
2024/02/14 09:47:41;;;;;;;0.10;0.10;;;13.30;92.20;;;;;;5078126;28;20024;-79
2024/02/14 09:50:07;;;;;;;0.00;0.00;;;13.10;92.30;;;;;;5084554;28;20120;-79
2024/02/14 09:52:33;;;;;;;0.00;0.00;;;13.30;92.80;;;;;;5077629;28;20490;-80
2024/02/14 09:55:02;;;;;;;0.10;0.10;;;13.10;92.90;;;;;;5080856;28;21694;-80
2024/02/14 09:57:29;;;;;;;0.10;0.10;;;13.20;92.70;;;;;;5078587;28;20287;-79
2024/02/14 09:59:56;;;;;;;0.00;0.00;;;13.40;93.10;;;;;;5079208;28;20024;-79
2024/02/14 10:02:22;;;;;;;0.10;0.10;;;13.40;92.10;;;;;;5076908;28;20016;-79
2024/02/14 10:04:48;;;;;;;0.00;0.00;;;13.60;92.80;;;;;;5088531;28;20033;-79
2024/02/14 10:07:13;;;;;;;0.00;0.00;;;13.60;92.00;;;;;;5070392;28;20031;-79
2024/02/14 10:09:43;;;;;;;0.00;0.00;;;13.60;92.60;;;;;;5076955;28;20094;-79
2024/02/14 10:12:09;;;;;;;0.10;0.10;;;13.80;93.40;;;;;;5078150;28;20030;-79
2024/02/14 10:14:36;;;;;;;0.00;0.00;;;13.70;93.20;;;;;;5080531;28;20028;-79
2024/02/14 10:17:05;;;;;;;0.00;0.00;;;13.80;93.00;;;;;;5073795;28;20052;-79
2024/02/14 10:19:31;;;;;;;0.10;0.10;;;13.90;92.90;;;;;;5083800;28;20020;-80
2024/02/14 10:21:58;;;;;;;0.00;0.00;;;14.00;92.90;;;;;;5075857;28;20054;-79
2024/02/14 10:24:29;;;;;;;0.00;0.00;;;14.00;92.90;;;;;;5070649;28;20028;-79
2024/02/14 10:26:57;;;;;;;0.05;0.05;;;14.10;93.00;;;;;;5087323;28;20029;-79
2024/02/14 10:29:24;;;;;;;0.00;0.00;;;14.10;92.70;;;;;;5085318;28;20031;-79
2024/02/14 10:31:50;;;;;;;0.00;0.00;;;14.10;92.70;;;;;;5083644;28;20016;-79
2024/02/14 10:34:16;;;;;;;0.05;0.05;;;13.90;92.50;;;;;;5080254;28;20021;-78
2024/02/14 10:36:45;;;;;;;0.00;0.00;;;14.00;92.80;;;;;;5076134;28;20082;-80
2024/02/14 10:39:11;;;;;;;0.10;0.10;;;14.10;92.80;;;;;;5085253;28;20569;-80
2024/02/14 10:41:37;;;;;;;0.00;0.00;;;14.30;93.40;;;;;;5077251;28;20099;-80
2024/02/14 10:44:06;;;;;;;0.00;0.00;;;14.30;92.90;;;;;;5089885;28;20111;-79
2024/02/14 10:46:37;;;;;;;0.00;0.00;;;14.20;92.90;;;;;;5074633;28;20031;-79
2024/02/14 10:49:07;;;;;;;0.63;0.63;;;14.10;93.30;;;;;;5078372;28;20788;-80
2024/02/14 10:51:38;;;;;;;0.00;0.00;;;14.20;93.10;;;;;;5085888;28;20024;-80
2024/02/14 10:54:11;;;;;;;0.00;0.00;;;14.30;93.90;;;;;;5077925;28;20024;-79
2024/02/14 10:56:41;;;;;;;0.00;0.00;;;14.40;93.60;;;;;;5080682;28;20082;-80
2024/02/14 10:59:10;;;;;;;0.00;0.00;;;14.50;93.80;;;;;;5082262;28;20118;-79
2024/02/14 11:01:37;;;;;;;0.00;0.00;;;14.60;93.70;;;;;;5085367;28;20035;-80
2024/02/14 11:04:04;;;;;;;0.00;0.00;;;14.70;94.00;;;;;;5085425;28;20016;-80
2024/02/14 11:06:30;;;;;;;0.00;0.00;;;14.70;93.30;;;;;;5079452;28;20017;-80
2024/02/14 11:09:01;;;;;;;0.00;0.00;;;14.70;93.30;;;;;;5086630;28;20035;-79
2024/02/14 11:11:32;;;;;;;0.00;0.00;;;14.70;93.80;;;;;;5080612;28;20059;-80
2024/02/14 11:13:58;;;;;;;0.00;0.00;;;14.70;93.90;;;;;;5084233;28;20027;-79
2024/02/14 11:16:32;;;;;;;0.00;0.00;;;14.60;93.20;;;;;;5078395;28;20537;-80
2024/02/14 11:19:09;;;;;;;0.00;0.00;;;14.70;93.20;;;;;;5084401;28;20035;-80
2024/02/14 11:21:46;;;;;;;0.00;0.00;;;14.70;94.60;;;;;;5075695;28;20021;-80
2024/02/14 11:24:15;;;;;;;0.00;0.00;;;14.70;94.40;;;;;;5078342;28;20027;-80
2024/02/14 11:26:54;;;;;;;0.00;0.00;;;14.70;94.30;;;;;;5071603;28;20158;-79
2024/02/14 11:29:20;;;;;;;0.00;0.00;;;14.60;93.50;;;;;;5084645;28;20108;-79
2024/02/14 11:31:47;;;;;;;0.00;0.00;;;14.60;94.40;;;;;;5075410;28;20043;-80
2024/02/14 11:34:14;;;;;;;0.00;0.00;;;14.60;93.80;;;;;;5073015;28;20495;-80
2024/02/14 11:36:44;;;;;;;0.05;0.05;;;14.60;94.20;;;;;;5070756;28;20127;-80
2024/02/14 11:39:14;;;;;;;0.00;0.00;;;14.50;94.40;;;;;;5079036;28;20169;-80
2024/02/14 11:41:42;;;;;;;0.00;0.00;;;14.60;94.10;;;;;;5085320;28;20099;-79
2024/02/14 11:44:08;;;;;;;0.80;0.80;;;14.70;94.70;;;;;;5075223;28;20519;-79
2024/02/14 11:46:35;;;;;;;0.00;0.00;;;14.70;95.50;;;;;;5072500;28;20314;-80
2024/02/14 11:49:05;;;;;;;0.05;0.05;;;14.60;95.50;;;;;;5084569;28;20036;-80
2024/02/14 11:51:33;;;;;;;0.00;0.00;;;14.60;95.50;;;;;;5071829;28;20040;-80
2024/02/14 11:54:06;;;;;;;0.00;0.00;;;14.70;95.10;;;;;;5072467;28;20588;-80
2024/02/14 11:56:37;;;;;;;0.00;0.00;;;14.60;94.90;;;;;;5076074;28;20048;-80
2024/02/14 11:59:07;;;;;;;0.00;0.00;;;14.60;95.10;;;;;;5076016;28;20043;-79
2024/02/14 12:01:37;;;;;;;0.00;0.00;;;14.70;95.90;;;;;;5079614;28;20036;-79
2024/02/14 12:04:11;;;;;;;0.00;0.00;;;14.60;95.20;;;;;;5077438;28;20491;-80
2024/02/14 12:06:41;;;;;;;0.00;0.00;;;14.50;95.50;;;;;;5073630;28;20034;-80
2024/02/14 12:09:10;;;;;;;0.00;0.00;;;14.50;94.20;;;;;;5072453;28;20392;-80
2024/02/14 12:11:39;;;;;;;0.00;0.00;;;14.60;93.80;;;;;;5075767;28;20085;-80
2024/02/14 12:14:08;;;;;;;0.00;0.00;;;14.70;93.10;;;;;;5076449;28;20032;-80
2024/02/14 12:16:40;;;;;;;0.00;0.00;;;14.50;93.40;;;;;;5077464;28;20319;-80
2024/02/14 12:19:15;;;;;;;0.00;0.00;;;14.50;94.50;;;;;;5082927;28;20034;-80
2024/02/14 12:21:41;;;;;;;0.00;0.00;;;14.60;95.00;;;;;;5074803;28;20511;-80
2024/02/14 12:24:12;;;;;;;0.00;0.00;;;14.70;95.20;;;;;;5075293;28;20054;-80
2024/02/14 12:26:38;;;;;;;0.00;0.00;;;14.60;95.60;;;;;;5084503;28;20470;-80
2024/02/14 12:29:06;;;;;;;0.00;0.00;;;14.70;95.20;;;;;;5083586;28;20031;-80
2024/02/14 12:31:32;;;;;;;0.00;0.00;;;14.70;94.90;;;;;;5077909;28;20407;-80
2024/02/14 12:34:04;;;;;;;0.00;0.00;;;14.80;94.70;;;;;;5072248;28;20516;-80
2024/02/14 12:36:32;;;;;;;0.00;0.00;;;14.70;94.80;;;;;;5081344;28;20793;-80
2024/02/14 12:38:59;;;;;;;0.00;0.00;;;14.60;94.10;;;;;;5101476;28;20020;-81
2024/02/14 12:41:26;;;;;;;0.00;0.00;;;14.60;94.70;;;;;;5079010;28;20102;-80
2024/02/14 12:43:53;;;;;;;0.00;0.00;;;14.60;94.30;;;;;;5096363;28;20024;-80
2024/02/14 12:46:19;;;;;;;0.00;0.00;;;14.60;94.10;;;;;;5080899;28;20850;-80
2024/02/14 12:48:44;;;;;;;0.00;0.00;;;14.50;94.70;;;;;;5074829;28;20136;-80
2024/02/14 12:51:10;;;;;;;0.00;0.00;;;14.40;95.50;;;;;;5082091;28;20028;-79
2024/02/14 12:53:36;;;;;;;0.00;0.00;;;14.40;95.50;;;;;;5081987;28;20020;-80